Harvey, West Virginia
Current Conditions -  °F | °C
As of 9:51 AM on Monday 24 Nov 2014 (Local Time) from KBKW Reporting Station
Clear Clear  
Wind Chill: 16°   Ceiling: Unl
Heat Index: 16°   Visibility: 10mi
Dew Point:   Wind: 18mph
Humidity: 54%   Direction: 210°SSW
Pressure: 29.64"   Gusts: 38mph
Location:  37.9785°N, 81.1005°W
Report Text: KBKW 241451Z AUTO 21016G33KT 10SM CLR 16/07 A2964 RMK AO2 PK WND 19033/1435 SLP022 T01610067 50006
Loading
Personal Weather Stations






























Interactive Weather Map New forecast layout! Learn more

10-Day Weather Forecast

Advertisements
Track Severe Weather on mobile